Preview of NWS' New Version of Forecast
This preview is not operational and should not be used for support decisions.

Terminal Aerodrome Forecast (TAF)

Issued by National Weather Service (NWS)

                            
330 
FTUS42 KMFL 201129
TAFMIA
TAF
KMIA 201129Z 2012/2118 10016KT P6SM FEW015 SCT025 BKN050
     FM201500 12017G27KT P6SM FEW025 SCT050
     FM202100 11013G23KT P6SM FEW025 SCT050
     FM210000 10011KT P6SM FEW025 SCT050=